createdAt,value
2019-03-21T00:02:13.131Z,4.97
2019-03-21T00:04:45.950Z,4.88
2019-03-21T00:07:17.243Z,4.75
2019-03-21T00:10:06.912Z,4.75
2019-03-21T00:12:37.337Z,4.68
2019-03-21T00:15:10.884Z,4.59
2019-03-21T00:17:44.613Z,4.58
2019-03-21T00:20:17.381Z,4.56
2019-03-21T00:22:47.825Z,4.44
2019-03-21T00:25:21.321Z,4.40
2019-03-21T00:27:51.756Z,4.39
2019-03-21T00:30:26.518Z,4.35
2019-03-21T00:32:57.348Z,4.32
2019-03-21T00:35:27.805Z,4.28
2019-03-21T00:37:58.246Z,4.30
2019-03-21T00:40:34.548Z,4.23
2019-03-21T00:43:07.594Z,4.21
2019-03-21T00:45:38.078Z,4.08
2019-03-21T00:48:11.264Z,4.06
2019-03-21T00:50:42.481Z,4.07
2019-03-21T00:53:13.043Z,4.06
2019-03-21T00:55:54.890Z,4.11
2019-03-21T00:58:25.376Z,4.13
2019-03-21T01:01:01.664Z,4.09
2019-03-21T01:03:32.189Z,4.11
2019-03-21T01:06:07.183Z,4.04
2019-03-21T01:08:37.622Z,4.02
2019-03-21T01:11:08.086Z,3.97
2019-03-21T01:13:40.038Z,3.92
2019-03-21T01:16:10.512Z,3.86
2019-03-21T01:18:43.581Z,3.81
2019-03-21T01:21:15.634Z,3.80
2019-03-21T01:23:48.435Z,3.72
2019-03-21T01:26:18.899Z,3.66
2019-03-21T01:28:49.955Z,3.73
2019-03-21T01:31:20.543Z,3.60
2019-03-21T01:33:51.049Z,3.65
2019-03-21T01:36:23.872Z,3.69
2019-03-21T01:38:55.198Z,3.71
2019-03-21T01:41:25.620Z,3.63
2019-03-21T01:43:56.391Z,3.54
2019-03-21T01:46:28.367Z,3.59
2019-03-21T01:48:58.865Z,3.58
2019-03-21T01:51:30.157Z,3.60
2019-03-21T01:54:02.354Z,3.56
2019-03-21T01:56:32.816Z,3.50
2019-03-21T01:59:03.253Z,3.52
2019-03-21T02:01:35.223Z,3.51
2019-03-21T02:04:06.062Z,3.52
2019-03-21T02:06:37.563Z,3.50
2019-03-21T02:09:08.812Z,3.47
2019-03-21T02:11:39.267Z,3.35
2019-03-21T02:14:09.761Z,3.37
2019-03-21T02:16:40.173Z,3.27
2019-03-21T02:19:10.672Z,3.24
2019-03-21T02:21:41.144Z,3.27
2019-03-21T02:24:13.544Z,3.22
2019-03-21T02:26:43.988Z,3.25
2019-03-21T02:29:14.413Z,3.22
2019-03-21T02:34:30.389Z,3.13
2019-03-21T02:37:01.214Z,3.07
2019-03-21T02:39:31.647Z,3.02
2019-03-21T02:42:02.535Z,3.04
2019-03-21T02:44:32.991Z,2.96
2019-03-21T02:47:03.438Z,2.96
2019-03-21T02:49:33.851Z,2.96
2019-03-21T02:52:04.261Z,2.90
2019-03-21T02:54:34.790Z,2.89
2019-03-21T02:57:05.268Z,2.82
2019-03-21T02:59:35.730Z,2.71
2019-03-21T03:02:15.396Z,2.74
2019-03-21T03:04:46.085Z,2.68
2019-03-21T03:07:16.550Z,2.67
2019-03-21T03:09:46.979Z,2.58
2019-03-21T03:12:17.505Z,2.61
2019-03-21T03:14:48.000Z,2.55
2019-03-21T03:17:18.461Z,2.51
2019-03-21T03:19:48.971Z,2.48
2019-03-21T03:22:19.514Z,2.53
2019-03-21T03:24:50.264Z,2.53
2019-03-21T03:27:20.764Z,2.44
2019-03-21T03:29:51.243Z,2.54
2019-03-21T03:32:21.874Z,2.43
2019-03-21T03:34:52.455Z,2.45
2019-03-21T03:37:22.899Z,2.46
2019-03-21T03:39:53.430Z,2.54
2019-03-21T03:42:23.904Z,2.56
2019-03-21T03:44:54.504Z,2.46
2019-03-21T03:47:24.993Z,2.51
2019-03-21T03:49:55.426Z,2.50
2019-03-21T03:52:25.897Z,2.44
2019-03-21T03:54:56.340Z,2.46
2019-03-21T03:57:26.867Z,2.39
2019-03-21T03:59:58.863Z,2.43
2019-03-21T04:02:29.327Z,2.44
2019-03-21T04:04:59.828Z,2.37
2019-03-21T04:07:30.299Z,2.45
2019-03-21T04:10:01.132Z,2.48
2019-03-21T04:12:32.926Z,2.43
2019-03-21T04:15:10.995Z,2.44
2019-03-21T04:17:41.477Z,2.48
2019-03-21T04:20:51.517Z,2.34
2019-03-21T04:23:14.889Z,2.24
2019-03-21T04:25:51.512Z,2.23
2019-03-21T04:28:21.988Z,2.22
2019-03-21T04:31:14.113Z,2.11
2019-03-21T04:33:53.957Z,2.21
2019-03-21T04:36:24.470Z,2.32
2019-03-21T04:38:56.772Z,2.39
2019-03-21T04:41:30.263Z,2.45
2019-03-21T04:44:00.763Z,2.59
2019-03-21T04:46:31.217Z,2.61
2019-03-21T04:49:02.055Z,2.58
2019-03-21T04:51:37.115Z,2.63
2019-03-21T04:54:12.065Z,2.72
2019-03-21T04:56:47.513Z,2.71
2019-03-21T04:59:29.249Z,2.83
2019-03-21T05:02:03.256Z,2.96
2019-03-21T05:04:35.606Z,3.07
2019-03-21T05:07:06.083Z,3.11
2019-03-21T05:09:38.121Z,3.26
2019-03-21T05:12:08.679Z,3.68
2019-03-21T05:14:43.706Z,3.94
2019-03-21T05:17:14.183Z,4.39
2019-03-21T05:19:44.950Z,5.12
2019-03-21T05:22:17.235Z,5.86
2019-03-21T05:24:47.705Z,5.90
2019-03-21T05:27:18.502Z,5.07
2019-03-21T05:29:52.983Z,4.68
2019-03-21T05:32:23.484Z,4.63
2019-03-21T05:34:53.882Z,4.63
2019-03-21T05:37:26.671Z,4.61
2019-03-21T05:39:57.121Z,4.70
2019-03-21T05:42:29.052Z,4.52
2019-03-21T05:45:10.109Z,4.32
2019-03-21T05:47:40.629Z,4.51
2019-03-21T05:50:15.091Z,4.56
2019-03-21T05:52:45.870Z,4.55
2019-03-21T05:55:16.599Z,4.56
2019-03-21T05:57:48.161Z,4.82
2019-03-21T06:00:38.738Z,4.55
2019-03-21T06:03:15.383Z,4.85
2019-03-21T06:05:54.101Z,4.92
2019-03-21T06:08:27.930Z,5.01
2019-03-21T06:11:03.432Z,5.12
2019-03-21T06:13:36.072Z,5.22
2019-03-21T06:16:10.887Z,5.24
2019-03-21T06:18:56.286Z,5.46
2019-03-21T06:21:41.699Z,5.60
2019-03-21T06:24:27.339Z,5.68
2019-03-21T06:27:14.351Z,5.82
2019-03-21T06:29:43.390Z,6.03
2019-03-21T06:32:14.046Z,6.16
2019-03-21T06:34:44.626Z,6.36
2019-03-21T06:37:23.022Z,6.48
2019-03-21T06:39:55.074Z,6.19
2019-03-21T06:42:25.813Z,6.32
2019-03-21T06:44:56.289Z,6.53
2019-03-21T06:47:32.571Z,6.59
2019-03-21T06:50:03.797Z,6.65
2019-03-21T06:52:34.285Z,6.76
2019-03-21T06:55:05.414Z,6.86
2019-03-21T06:57:52.165Z,6.68
2019-03-21T07:00:21.957Z,6.78
2019-03-21T07:02:52.490Z,6.72
2019-03-21T07:05:22.940Z,6.94
2019-03-21T07:07:53.443Z,6.99
2019-03-21T07:10:23.815Z,6.99
2019-03-21T07:12:54.286Z,6.91
2019-03-21T07:15:24.846Z,6.96
2019-03-21T07:17:55.378Z,7.02
2019-03-21T07:20:25.880Z,6.95
2019-03-21T07:22:56.356Z,7.11
2019-03-21T07:25:42.320Z,7.10
2019-03-21T07:28:14.365Z,7.34
2019-03-21T07:30:48.378Z,7.45
2019-03-21T07:33:25.247Z,7.52
2019-03-21T07:35:59.846Z,7.40
2019-03-21T07:38:30.310Z,7.26
2019-03-21T07:41:00.718Z,7.43
2019-03-21T07:46:49.112Z,7.45
2019-03-21T07:49:22.247Z,7.40
2019-03-21T07:51:52.770Z,7.57
2019-03-21T07:54:23.235Z,7.52
2019-03-21T07:56:53.735Z,7.71
2019-03-21T07:59:24.182Z,7.67
2019-03-21T08:01:54.615Z,7.79
2019-03-21T08:04:25.087Z,7.93
2019-03-21T08:07:13.666Z,8.06
2019-03-21T08:09:44.318Z,8.10
2019-03-21T08:12:16.543Z,8.00
2019-03-21T08:14:50.247Z,8.24
2019-03-21T08:17:21.824Z,7.91
2019-03-21T08:19:52.361Z,8.22
2019-03-21T08:22:23.164Z,8.28
2019-03-21T08:24:53.669Z,8.30
2019-03-21T08:27:27.818Z,8.51
2019-03-21T08:29:58.398Z,8.49
2019-03-21T08:32:32.003Z,8.57
2019-03-21T08:35:05.779Z,8.46
2019-03-21T08:37:36.296Z,8.53
2019-03-21T08:40:07.961Z,8.43
2019-03-21T08:42:38.535Z,8.50
2019-03-21T08:45:09.082Z,8.48
2019-03-21T08:47:39.666Z,8.83
2019-03-21T08:50:11.917Z,8.94
2019-03-21T08:52:44.230Z,9.00
2019-03-21T08:55:17.378Z,8.90
2019-03-21T08:57:56.305Z,8.77
2019-03-21T09:00:33.977Z,8.73
2019-03-21T09:03:00.610Z,8.70
2019-03-21T09:05:41.503Z,8.73
2019-03-21T09:08:11.967Z,8.77
2019-03-21T09:10:42.985Z,8.67
2019-03-21T09:13:13.440Z,8.74
2019-03-21T09:15:46.842Z,8.74
2019-03-21T09:18:17.464Z,8.70
2019-03-21T09:20:47.990Z,8.88
2019-03-21T09:23:18.595Z,8.96
2019-03-21T09:25:51.339Z,8.92
2019-03-21T09:28:21.558Z,8.83
2019-03-21T09:30:56.381Z,8.99
2019-03-21T09:33:24.363Z,8.87
2019-03-21T09:35:54.935Z,8.69
2019-03-21T09:38:25.586Z,8.47
2019-03-21T09:40:56.141Z,8.79
2019-03-21T09:43:26.976Z,8.98
2019-03-21T09:45:58.252Z,9.11
2019-03-21T09:51:41.410Z,9.11
2019-03-21T09:54:13.466Z,9.32
2019-03-21T09:56:51.277Z,9.30
2019-03-21T09:59:28.054Z,9.19
2019-03-21T10:01:58.696Z,9.48
2019-03-21T10:04:29.112Z,9.50
2019-03-21T10:07:00.904Z,9.58
2019-03-21T10:09:31.511Z,10.00
2019-03-21T10:12:02.417Z,10.06
2019-03-21T10:14:35.069Z,10.00
2019-03-21T10:17:05.684Z,9.60
2019-03-21T10:22:47.149Z,9.79
2019-03-21T10:25:17.640Z,9.51
2019-03-21T10:27:48.210Z,9.26
2019-03-21T10:30:43.495Z,9.71
2019-03-21T10:33:15.034Z,9.89
2019-03-21T10:35:45.546Z,10.14
2019-03-21T10:38:27.876Z,9.80
2019-03-21T10:41:17.942Z,10.18
2019-03-21T10:43:52.880Z,10.08
2019-03-21T10:46:26.624Z,9.59
2019-03-21T10:49:03.994Z,9.72
2019-03-21T10:51:40.358Z,9.49
2019-03-21T10:54:13.848Z,9.28
2019-03-21T10:56:44.432Z,9.50
2019-03-21T11:02:28.732Z,9.49
2019-03-21T11:05:00.422Z,9.94
2019-03-21T11:07:31.038Z,9.84
2019-03-21T11:10:11.523Z,10.22
2019-03-21T11:12:48.953Z,10.35
2019-03-21T11:15:22.458Z,10.34
2019-03-21T11:17:54.707Z,10.27
2019-03-21T11:20:35.862Z,10.25
2019-03-21T11:23:08.803Z,10.14
2019-03-21T11:25:43.777Z,10.18
2019-03-21T11:28:14.289Z,10.15
2019-03-21T11:30:45.060Z,10.08
2019-03-21T11:33:15.855Z,10.20
2019-03-21T11:35:46.433Z,10.21
2019-03-21T11:38:22.444Z,9.74
2019-03-21T11:40:54.191Z,9.96
2019-03-21T11:43:24.757Z,9.75
2019-03-21T11:45:55.509Z,9.63
2019-03-21T11:48:26.213Z,9.52
2019-03-21T11:50:58.327Z,9.48
2019-03-21T11:53:28.950Z,9.76
2019-03-21T11:56:04.129Z,9.69
2019-03-21T11:58:36.644Z,9.66
2019-03-21T12:01:10.340Z,9.57
2019-03-21T12:03:42.628Z,9.72
2019-03-21T12:06:16.112Z,9.74
2019-03-21T12:08:48.665Z,9.56
2019-03-21T12:11:21.140Z,9.41
2019-03-21T12:13:51.298Z,9.54
2019-03-21T12:16:21.922Z,9.62
2019-03-21T12:18:57.588Z,9.46
2019-03-21T12:21:28.206Z,9.27
2019-03-21T12:24:04.101Z,9.37
2019-03-21T12:26:51.898Z,9.21
2019-03-21T12:29:26.271Z,9.24
2019-03-21T12:32:01.199Z,9.44
2019-03-21T12:34:33.282Z,9.67
2019-03-21T12:37:08.810Z,9.81
2019-03-21T12:39:45.643Z,9.96
2019-03-21T12:42:19.004Z,10.03
2019-03-21T12:44:49.689Z,10.10
2019-03-21T12:47:30.815Z,10.39
2019-03-21T12:49:52.676Z,10.42
2019-03-21T12:52:45.943Z,10.68
2019-03-21T12:55:13.220Z,10.51
2019-03-21T12:57:49.046Z,10.83
2019-03-21T13:00:37.311Z,10.58
2019-03-21T13:03:09.327Z,10.60
2019-03-21T13:05:40.143Z,10.49
2019-03-21T13:08:12.344Z,10.30
2019-03-21T13:10:42.935Z,10.42
2019-03-21T13:13:13.948Z,9.98
2019-03-21T13:15:47.456Z,9.90
2019-03-21T13:18:17.921Z,10.02
2019-03-21T13:20:48.433Z,10.08
2019-03-21T13:23:20.551Z,10.15
2019-03-21T13:28:47.778Z,10.01
2019-03-21T13:31:18.410Z,9.89
2019-03-21T13:33:48.946Z,9.75
2019-03-21T13:36:21.217Z,9.73
2019-03-21T13:38:51.660Z,9.76
2019-03-21T13:41:24.010Z,9.72
2019-03-21T13:43:54.978Z,9.46
2019-03-21T13:46:28.063Z,9.55
2019-03-21T13:49:06.014Z,9.51
2019-03-21T13:51:38.897Z,9.33
2019-03-21T13:54:09.471Z,9.22
2019-03-21T13:56:40.317Z,9.29
2019-03-21T13:59:12.433Z,9.27
2019-03-21T14:01:42.996Z,9.04
2019-03-21T14:04:14.547Z,9.08
2019-03-21T14:06:50.124Z,9.07
2019-03-21T14:09:29.839Z,9.10
2019-03-21T14:12:01.394Z,9.07
2019-03-21T14:14:33.473Z,9.16
2019-03-21T14:17:04.034Z,9.09
2019-03-21T14:19:42.897Z,9.03
2019-03-21T14:22:14.789Z,9.14
2019-03-21T14:24:46.841Z,9.07
2019-03-21T14:27:19.388Z,9.10
2019-03-21T14:30:00.780Z,9.07
2019-03-21T14:32:22.299Z,9.03
2019-03-21T14:34:59.539Z,9.08
2019-03-21T14:37:31.849Z,9.21
2019-03-21T14:40:07.466Z,9.23
2019-03-21T14:42:38.072Z,9.06
2019-03-21T14:45:10.435Z,9.14
2019-03-21T14:47:40.963Z,8.95
2019-03-21T14:50:17.145Z,8.83
2019-03-21T14:52:47.749Z,8.85
2019-03-21T14:55:20.284Z,8.81
2019-03-21T14:57:50.824Z,8.74
2019-03-21T15:02:57.108Z,8.66
2019-03-21T15:05:27.729Z,8.66
2019-03-21T15:07:58.263Z,8.67
2019-03-21T15:10:30.898Z,8.74
2019-03-21T15:13:02.229Z,8.74
2019-03-21T15:15:34.406Z,8.76
2019-03-21T15:18:04.839Z,8.76
2019-03-21T15:20:36.659Z,8.75
2019-03-21T15:23:10.576Z,8.79
2019-03-21T15:25:42.801Z,8.75
2019-03-21T15:28:13.503Z,8.72
2019-03-21T15:30:44.019Z,8.73
2019-03-21T15:33:14.507Z,8.65
2019-03-21T15:35:45.135Z,8.59
2019-03-21T15:38:16.698Z,8.49
2019-03-21T15:40:47.203Z,8.43
2019-03-21T15:43:17.663Z,8.35
2019-03-21T15:45:48.342Z,8.20
2019-03-21T15:48:20.976Z,8.11
2019-03-21T15:51:03.547Z,8.01
2019-03-21T15:53:23.975Z,7.99
2019-03-21T15:55:56.046Z,7.90
2019-03-21T16:00:58.836Z,7.70
2019-03-21T16:03:55.067Z,7.68
2019-03-21T16:06:30.328Z,7.64
2019-03-21T16:09:14.097Z,7.82
2019-03-21T16:15:01.788Z,7.83
2019-03-21T16:18:26.808Z,7.87
2019-03-21T16:20:58.871Z,7.87
2019-03-21T16:23:33.811Z,7.90
2019-03-21T16:26:04.535Z,7.86
2019-03-21T16:28:35.080Z,7.83
2019-03-21T16:31:11.839Z,7.89
2019-03-21T16:33:44.131Z,7.81
2019-03-21T16:36:19.136Z,7.82
2019-03-21T16:38:51.318Z,7.74
2019-03-21T16:41:24.597Z,7.63
2019-03-21T16:44:07.289Z,7.52
2019-03-21T16:49:42.495Z,7.32
2019-03-21T17:06:02.382Z,7.22
2019-03-21T17:08:33.871Z,7.22
2019-03-21T17:11:56.478Z,7.25
2019-03-21T17:14:03.093Z,7.17
2019-03-21T17:16:45.906Z,7.10
2019-03-21T17:19:37.083Z,7.03
2019-03-21T17:22:08.867Z,7.05
2019-03-21T17:24:44.286Z,7.04
2019-03-21T18:31:48.607Z,5.83
2019-03-21T18:44:38.570Z,5.62
2019-03-21T18:50:58.065Z,5.63
2019-03-21T18:57:19.713Z,5.49
2019-03-21T19:14:06.024Z,5.07
2019-03-21T19:26:58.972Z,4.79
2019-03-21T19:29:44.963Z,4.80
2019-03-21T20:08:45.718Z,4.56
2019-03-21T20:53:36.893Z,4.60
2019-03-21T20:56:14.268Z,4.53
2019-03-21T20:58:58.091Z,4.32
2019-03-21T21:04:36.543Z,4.38
2019-03-21T21:07:10.232Z,4.27
2019-03-21T21:09:43.758Z,4.22
2019-03-21T21:12:14.595Z,4.31
2019-03-21T21:15:01.681Z,4.22
2019-03-21T21:17:37.434Z,4.21
2019-03-21T21:20:10.089Z,4.22
2019-03-21T21:22:48.560Z,4.16
2019-03-21T21:25:18.578Z,4.08
2019-03-21T21:27:51.163Z,4.00
2019-03-21T21:30:24.573Z,3.99
2019-03-21T21:32:58.636Z,3.88
2019-03-21T21:35:31.345Z,3.95
2019-03-21T21:38:04.955Z,4.02
2019-03-21T21:40:43.912Z,3.95
2019-03-21T21:43:19.583Z,3.87
2019-03-21T21:45:51.613Z,3.83
2019-03-21T21:48:22.065Z,4.07
2019-03-21T21:50:57.552Z,3.90
2019-03-21T21:53:28.475Z,4.01
2019-03-21T21:56:17.020Z,4.03
2019-03-21T21:58:38.463Z,4.11
2019-03-21T22:01:09.952Z,4.20
2019-03-21T22:03:41.425Z,4.44
2019-03-21T22:06:12.780Z,4.65
2019-03-21T22:08:48.674Z,4.53
2019-03-21T22:11:19.215Z,4.69
2019-03-21T22:13:49.735Z,4.68
2019-03-21T22:16:21.433Z,4.49
2019-03-21T22:18:55.046Z,4.42
2019-03-21T22:21:25.464Z,4.25
2019-03-21T22:24:00.054Z,4.27
2019-03-21T22:26:32.047Z,4.12
2019-03-21T22:29:06.224Z,4.09
2019-03-21T22:31:46.441Z,4.00
2019-03-21T22:34:20.033Z,4.08
2019-03-21T22:36:52.116Z,4.04
2019-03-21T22:39:22.587Z,4.02
2019-03-21T22:41:54.607Z,4.00
2019-03-21T22:44:25.660Z,4.00
2019-03-21T22:46:56.122Z,4.02
2019-03-21T22:49:26.351Z,4.02
2019-03-21T22:51:58.838Z,4.01
2019-03-21T22:54:30.221Z,4.03
2019-03-21T22:57:01.778Z,4.02
2019-03-21T22:59:33.243Z,3.94
2019-03-21T23:02:03.690Z,4.00
2019-03-21T23:04:35.069Z,4.02
2019-03-21T23:07:06.657Z,4.03
2019-03-21T23:09:38.617Z,4.03
2019-03-21T23:12:09.053Z,3.99
2019-03-21T23:14:39.616Z,3.99
2019-03-21T23:17:10.063Z,4.08
2019-03-21T23:19:42.375Z,4.12
2019-03-21T23:22:13.973Z,4.09
2019-03-21T23:24:44.519Z,4.13
2019-03-21T23:27:17.208Z,4.14
2019-03-21T23:29:47.672Z,4.09
2019-03-21T23:32:18.079Z,4.13
2019-03-21T23:34:50.781Z,4.13
2019-03-21T23:37:22.410Z,4.12
2019-03-21T23:39:54.413Z,4.19
2019-03-21T23:42:25.001Z,4.13
2019-03-21T23:44:56.452Z,4.07
2019-03-21T23:47:26.897Z,4.17
2019-03-21T23:49:57.396Z,4.07
2019-03-21T23:52:27.941Z,3.94
2019-03-21T23:54:58.369Z,3.87
2019-03-21T23:57:28.797Z,3.91
2019-03-21T23:59:59.281Z,3.68
